»·PEaware :: N15JG KPUC-KSLC

N15JG :: KPUC-KSLC

FLIGHT INFORMATION

Flight Status: Arrived
Operator: Privately registered:
United States
More flights under this callsign
Pilot: Anonymous 11047 (11047)
Aircraft: CESSNA 172 SKYHAWK
(C172)
More flights by this aircraft type
Origin: KPUC Carbon Co
United States
Destination: KSLC Salt Lake City Intl
United States
More flights between these airports :: More routes between these airports
Route: +
File this flight plan on PilotEdge
Remarks:
Altitude:
(Current/Filed)
9,500ft
Speed:
(Current/Filed)
0kts
Departed: 20-Feb-17 02:01 PM
Arrived: 20-Feb-17 02:53 PM
Distance/Time
Traveled:
89nm/0:52
Distance/Time
To Go:
Arrived

Flight Plot

Page will automatically refresh every two minutes.

Flight plan parsing failed; only flown route is shown


Map Options




Map Legend


Flown Route
Filed Route
Departure Airport
Arrival Airport
Navaid (VOR, NDB)
Fix

Horizontal Profiles

Position Reports

Time Latitude Longitude Heading Altitude Ground
Speed
20-Feb-17 14:00 39.707580 -110.861890 337 9736ft 98kts
20-Feb-17 14:01 39.733946 -110.873962 342 10171ft 100kts
20-Feb-17 14:02 39.760095 -110.888150 332 10648ft 103kts
20-Feb-17 14:03 39.788562 -110.908560 336 10493ft 124kts
20-Feb-17 14:04 39.814192 -110.935630 312 10237ft 120kts
20-Feb-17 14:05 39.834835 -110.967340 308 10310ft 105kts
20-Feb-17 14:06 39.853959 -110.995617 316 10525ft 107kts
20-Feb-17 14:07 39.876308 -111.021821 319 10600ft 112kts
20-Feb-17 14:08 39.900250 -111.047865 316 10635ft 108kts
20-Feb-17 14:09 39.920480 -111.076046 308 10759ft 105kts
20-Feb-17 14:10 39.932533 -111.113655 281 10597ft 120kts
20-Feb-17 14:11 39.938430 -111.155392 279 10505ft 117kts
20-Feb-17 14:12 39.945605 -111.195482 285 10484ft 113kts
20-Feb-17 14:13 39.955520 -111.233747 287 10553ft 113kts
20-Feb-17 14:14 39.964061 -111.272378 284 10543ft 110kts
20-Feb-17 14:15 39.973146 -111.311167 288 10576ft 111kts
20-Feb-17 14:16 39.981901 -111.349984 285 10514ft 113kts
20-Feb-17 14:17 39.989794 -111.390109 285 10413ft 114kts
20-Feb-17 14:18 39.996154 -111.429988 282 10426ft 115kts
20-Feb-17 14:19 40.008986 -111.467329 304 10385ft 116kts
20-Feb-17 14:20 40.027897 -111.501388 308 10310ft 111kts
20-Feb-17 14:21 40.045676 -111.532913 302 10355ft 107kts
20-Feb-17 14:22 40.061004 -111.566054 306 10394ft 109kts
20-Feb-17 14:23 40.081644 -111.594649 321 10403ft 108kts
20-Feb-17 14:25 40.108671 -111.620479 309 10425ft 108kts
20-Feb-17 14:25 40.124006 -111.646482 318 10422ft 109kts
20-Feb-17 14:26 40.139718 -111.679300 298 10488ft 110kts
20-Feb-17 14:27 40.155908 -111.714174 306 10554ft 114kts
20-Feb-17 14:28 40.175412 -111.747547 304 10590ft 116kts
20-Feb-17 14:29 40.193599 -111.782447 307 10629ft 116kts
20-Feb-17 14:30 40.220368 -111.807168 333 10550ft 119kts
20-Feb-17 14:31 40.249848 -111.827112 333 10480ft 117kts
20-Feb-17 14:32 40.279504 -111.843368 344 10437ft 118kts
20-Feb-17 14:33 40.311077 -111.850418 352 10474ft 112kts
20-Feb-17 14:34 40.342817 -111.856292 350 10366ft 120kts
20-Feb-17 14:35 40.374145 -111.861466 353 10462ft 113kts
20-Feb-17 14:36 40.405752 -111.865273 356 10459ft 114kts
20-Feb-17 14:37 40.437463 -111.867197 357 10437ft 116kts
20-Feb-17 14:38 40.469435 -111.868176 358 10116ft 115kts
20-Feb-17 14:39 40.501926 -111.868317 0 9666ft 117kts
20-Feb-17 14:40 40.533189 -111.870682 355 9230ft 116kts
20-Feb-17 14:41 40.566682 -111.872992 357 8747ft 116kts
20-Feb-17 14:42 40.598218 -111.876670 350 8201ft 115kts
20-Feb-17 14:43 40.629899 -111.881981 354 7703ft 117kts
20-Feb-17 14:44 40.660600 -111.887837 350 7246ft 112kts
20-Feb-17 14:45 40.691049 -111.894909 349 6775ft 112kts
20-Feb-17 14:46 40.720406 -111.904175 339 6396ft 106kts
20-Feb-17 14:47 40.746898 -111.919157 332 5822ft 104kts
20-Feb-17 14:48 40.771257 -111.937319 328 5243ft 99kts
20-Feb-17 14:49 40.798642 -111.940724 4 5090ft 104kts
20-Feb-17 14:50 40.822056 -111.943617 298 4858ft 85kts
20-Feb-17 14:51 40.811949 -111.962191 176 4603ft 86kts
20-Feb-17 14:52 40.792801 -111.962079 179 4220ft 44kts
20-Feb-17 14:53 40.786085 -111.960759 132 4220ft 0kts
20-Feb-17 14:54 40.782403 -111.959498 109 4221ft 12kts
20-Feb-17 14:55 40.778630 -111.959196 179 4223ft 18kts
20-Feb-17 14:56 40.777096 -111.958763 184 4223ft 0kts

Navigation Log

Ident Type
Flight plan parsing failed, navigation log unavailable